Time;durP1;ratioP1;P1;durP2;ratioP2;P2;SDS_P1;SDS_P2;PMS_P1;PMS_P2;Temp;Humidity;BMP_temperature;BMP_pressure;BME280_temperature;BME280_humidity;BME280_pressure;Samples;Min_cycle;Max_cycle;Signal;HPM_P1;HPM_P2
2021/08/19 00:02:21;;;;;;;6.13;5.03;;;;;;;16.01;73.14;99459.69;4890245;29;20215;-90
2021/08/19 00:04:51;;;;;;;7.57;5.53;;;;;;;15.89;73.05;99442.84;4875206;29;20235;-91
2021/08/19 00:07:19;;;;;;;9.80;5.53;;;;;;;16.14;72.69;99467.38;4859562;29;20235;-91
2021/08/19 00:09:50;;;;;;;6.13;5.23;;;;;;;16.12;72.11;99459.53;4904032;29;20235;-89
2021/08/19 00:12:17;;;;;;;5.50;4.70;;;;;;;16.20;72.32;99466.31;4874875;29;20651;-90
2021/08/19 00:14:45;;;;;;;6.20;5.00;;;;;;;16.17;72.31;99451.44;4888074;29;20238;-91
2021/08/19 00:17:12;;;;;;;6.67;5.00;;;;;;;16.20;72.35;99442.81;4871392;29;20242;-95
2021/08/19 00:19:44;;;;;;;6.43;5.17;;;;;;;16.30;72.45;99455.56;4887598;29;20326;-90
2021/08/19 00:22:12;;;;;;;5.93;5.00;;;;;;;16.34;72.48;99453.97;4871320;29;20703;-90
2021/08/19 00:24:40;;;;;;;5.67;4.80;;;;;;;16.35;72.23;99444.81;4871713;29;20326;-92
2021/08/19 00:27:07;;;;;;;6.40;4.87;;;;;;;16.38;72.27;99444.25;4872012;29;20235;-89
2021/08/19 00:29:34;;;;;;;5.20;4.20;;;;;;;16.43;72.25;99449.69;4871845;29;20267;-90
2021/08/19 00:32:06;;;;;;;6.37;4.40;;;;;;;16.52;72.26;99453.53;4856273;29;20256;-91
2021/08/19 00:34:33;;;;;;;6.33;4.90;;;;;;;16.46;72.28;99438.38;4871529;29;20238;-90
2021/08/19 00:37:00;;;;;;;5.50;4.90;;;;;;;16.52;71.91;99439.19;4871450;29;20242;-89
2021/08/19 00:39:28;;;;;;;5.30;4.53;;;;;;;16.55;71.56;99441.41;4871753;29;20315;-91
2021/08/19 00:41:55;;;;;;;7.03;4.77;;;;;;;16.64;71.37;99447.97;4886915;29;20258;-90
2021/08/19 00:44:23;;;;;;;7.40;4.93;;;;;;;16.63;71.10;99449.03;4870457;29;20239;-91
2021/08/19 00:46:52;;;;;;;6.40;4.80;;;;;;;16.62;70.51;99434.69;4886619;29;20232;-92
2021/08/19 00:49:20;;;;;;;7.03;5.10;;;;;;;16.70;70.40;99446.91;4886363;29;20244;-90
2021/08/19 00:51:50;;;;;;;6.03;4.57;;;;;;;16.75;70.22;99448.84;4887017;29;20247;-91
2021/08/19 00:54:25;;;;;;;5.87;4.80;;;;;;;16.82;69.52;99452.91;4855560;29;20295;-91
2021/08/19 00:56:54;;;;;;;4.80;4.13;;;;;;;16.77;68.87;99438.53;4885646;29;20583;-91
2021/08/19 00:59:23;;;;;;;5.30;4.43;;;;;;;16.83;68.52;99443.72;4869994;29;20235;-92
2021/08/19 01:01:53;;;;;;;5.10;4.30;;;;;;;16.90;68.20;99454.28;4870909;29;20231;-91
2021/08/19 01:04:22;;;;;;;5.30;3.93;;;;;;;16.95;67.91;99451.59;4868958;29;20343;-90
2021/08/19 01:06:52;;;;;;;4.50;4.10;;;;;;;16.99;67.95;99464.34;4887895;29;20545;-95
2021/08/19 01:09:19;;;;;;;5.70;4.10;;;;;;;16.99;67.23;99452.69;4855656;29;20287;-92
2021/08/19 01:11:46;;;;;;;4.90;4.00;;;;;;;17.09;66.84;99458.16;4885908;29;20259;-91
2021/08/19 01:14:14;;;;;;;4.10;3.67;;;;;;;17.13;66.45;99451.13;4886767;29;20227;-94
2021/08/19 01:16:42;;;;;;;4.43;3.63;;;;;;;17.11;66.55;99446.00;4885532;29;20249;-94
2021/08/19 01:19:18;;;;;;;4.20;3.30;;;;;;;17.19;66.31;99444.66;4870061;29;20236;-93
2021/08/19 01:21:46;;;;;;;7.00;3.50;;;;;;;17.18;66.11;99443.81;4886488;29;20239;-92
2021/08/19 01:24:16;;;;;;;6.67;4.20;;;;;;;17.24;66.19;99446.56;4871722;29;20247;-95
2021/08/19 01:26:44;;;;;;;3.83;3.30;;;;;;;17.17;66.40;99436.78;4887460;29;20235;-94
2021/08/19 01:29:14;;;;;;;4.57;3.80;;;;;;;17.06;66.34;99409.97;4871518;29;20600;-90
2021/08/19 01:31:41;;;;;;;4.77;3.83;;;;;;;17.21;66.27;99437.09;4857459;29;20260;-90
2021/08/19 01:34:10;;;;;;;4.97;3.53;;;;;;;17.28;66.39;99436.81;4872955;29;20239;-91
2021/08/19 01:36:37;;;;;;;5.80;3.63;;;;;;;17.15;66.42;99411.06;4858306;29;20228;-93
2021/08/19 01:39:04;;;;;;;4.70;3.70;;;;;;;17.22;66.50;99438.69;4888379;29;20232;-95
2021/08/19 01:41:30;;;;;;;4.10;3.63;;;;;;;17.19;66.59;99425.69;4888160;29;20231;-93
2021/08/19 01:43:58;;;;;;;4.77;3.67;;;;;;;17.22;66.77;99435.97;4888588;29;20307;-93
2021/08/19 01:46:27;;;;;;;3.50;3.20;;;;;;;17.25;66.91;99438.16;4887060;29;20239;-92
2021/08/19 01:48:53;;;;;;;4.73;3.77;;;;;;;17.28;66.71;99439.50;4887303;29;20234;-92
2021/08/19 01:51:22;;;;;;;4.27;3.77;;;;;;;17.28;67.34;99432.22;4872092;29;20239;-93
2021/08/19 01:53:49;;;;;;;4.23;3.60;;;;;;;17.23;67.45;99424.06;4889142;29;20235;-92
2021/08/19 01:56:23;;;;;;;4.63;3.40;;;;;;;17.22;67.40;99422.44;4862153;29;20534;-93
2021/08/19 01:58:54;;;;;;;6.37;4.20;;;;;;;17.23;67.32;99426.78;4891340;29;20234;-92
2021/08/19 02:01:25;;;;;;;4.30;3.50;;;;;;;17.17;67.28;99417.81;4893443;29;20576;-90
2021/08/19 02:03:54;;;;;;;4.60;3.60;;;;;;;17.17;67.55;99406.19;4877727;29;20231;-95
2021/08/19 02:06:21;;;;;;;3.93;3.30;;;;;;;17.23;67.39;99420.56;4877366;29;26435;-90
2021/08/19 02:08:48;;;;;;;4.40;3.60;;;;;;;17.24;67.71;99423.00;4876163;29;20535;-90
2021/08/19 02:11:17;;;;;;;5.40;3.80;;;;;;;17.20;67.48;99412.97;4892550;29;20239;-90
2021/08/19 02:13:44;;;;;;;4.03;3.63;;;;;;;17.19;67.34;99404.03;4892110;29;20303;-93
2021/08/19 02:16:10;;;;;;;4.83;3.90;;;;;;;17.25;67.40;99416.50;4872040;29;20304;-94
2021/08/19 02:18:37;;;;;;;4.80;3.67;;;;;;;17.28;67.26;99413.25;4871774;29;20251;-92
2021/08/19 02:21:06;;;;;;;5.00;3.13;;;;;;;17.26;67.26;99418.16;4888039;29;20632;-90
2021/08/19 02:23:33;;;;;;;5.73;3.90;;;;;;;17.22;66.58;99400.00;4875263;29;20324;-94
2021/08/19 02:26:00;;;;;;;5.60;3.77;;;;;;;17.20;66.94;99404.84;4883641;29;20521;-89
2021/08/19 02:28:26;;;;;;;4.30;3.47;;;;;;;17.14;66.56;99404.84;4883221;29;20255;-91
2021/08/19 02:30:53;;;;;;;4.67;2.93;;;;;;;17.06;67.05;99399.97;4883658;29;20326;-95
2021/08/19 02:33:20;;;;;;;5.87;3.40;;;;;;;17.14;67.07;99414.84;4852399;29;20233;-88
2021/08/19 02:35:48;;;;;;;4.13;3.40;;;;;;;17.07;67.26;99400.78;4886045;29;20235;-90
2021/08/19 02:38:16;;;;;;;4.57;3.60;;;;;;;17.12;67.22;99403.50;4889669;29;20596;-92
2021/08/19 02:40:42;;;;;;;4.03;3.20;;;;;;;17.14;67.30;99399.44;4874588;29;20659;-91
2021/08/19 02:43:09;;;;;;;3.63;3.27;;;;;;;17.07;67.04;99387.25;4876249;29;20232;-88
2021/08/19 02:45:39;;;;;;;4.57;3.33;;;;;;;17.16;66.85;99399.16;4889022;29;20235;-90
2021/08/19 02:48:06;;;;;;;3.77;3.20;;;;;;;17.06;66.68;99391.84;4874136;29;20303;-95
2021/08/19 02:50:35;;;;;;;5.03;3.10;;;;;;;17.08;67.25;99399.66;4875042;29;20532;-97
2021/08/19 02:53:02;;;;;;;3.17;2.83;;;;;;;17.12;67.36;99408.91;4887973;29;20266;-94
2021/08/19 02:55:28;;;;;;;3.50;3.20;;;;;;;17.14;67.48;99412.97;4887650;29;20253;-92
2021/08/19 02:57:57;;;;;;;4.53;3.40;;;;;;;17.10;67.44;99394.81;4873516;29;20299;-96
2021/08/19 03:00:24;;;;;;;3.53;3.20;;;;;;;17.13;67.09;99400.50;4888674;29;20238;-91
2021/08/19 03:02:51;;;;;;;3.40;3.10;;;;;;;17.10;66.71;99402.94;4872592;29;20232;-93
2021/08/19 03:05:19;;;;;;;4.43;3.30;;;;;;;17.07;66.62;99390.75;4888740;29;20731;-93
2021/08/19 03:07:45;;;;;;;3.87;3.47;;;;;;;17.13;66.99;99400.50;4873572;29;20591;-91
2021/08/19 03:10:12;;;;;;;4.57;3.37;;;;;;;17.07;67.73;99396.19;4873964;29;20280;-90
2021/08/19 03:12:39;;;;;;;3.80;3.30;;;;;;;17.09;68.11;99401.31;4874852;29;20248;-90
2021/08/19 03:15:06;;;;;;;4.83;3.50;;;;;;;17.00;67.90;99397.50;4874619;29;20235;-88
2021/08/19 03:17:34;;;;;;;4.20;3.70;;;;;;;16.98;67.48;99386.94;4868679;29;20296;-90
2021/08/19 03:20:00;;;;;;;5.37;3.30;;;;;;;17.12;67.30;99404.28;4866706;29;20232;-88
2021/08/19 03:22:27;;;;;;;4.47;3.33;;;;;;;17.10;67.11;99401.03;4867339;29;20230;-88
2021/08/19 03:24:54;;;;;;;3.40;2.90;;;;;;;17.01;66.94;99383.72;4882583;29;20296;-88
2021/08/19 03:27:21;;;;;;;4.50;3.50;;;;;;;17.13;66.98;99396.97;4866818;29;20242;-89
2021/08/19 03:29:48;;;;;;;4.63;3.47;;;;;;;17.10;67.69;99392.94;4866736;29;20319;-91
2021/08/19 03:32:15;;;;;;;4.73;3.40;;;;;;;17.14;68.13;99396.72;4866426;29;20330;-88
2021/08/19 03:34:42;;;;;;;4.47;3.47;;;;;;;17.09;68.56;99395.88;4879134;29;20289;-89
2021/08/19 03:37:08;;;;;;;5.67;3.60;;;;;;;17.05;68.56;99392.09;4880126;29;20243;-89
2021/08/19 03:39:35;;;;;;;4.47;3.67;;;;;;;17.07;68.36;99392.66;4880028;29;20247;-89
2021/08/19 03:42:04;;;;;;;4.77;3.20;;;;;;;17.08;68.64;99402.38;4880083;29;20666;-89
2021/08/19 03:44:30;;;;;;;4.43;3.77;;;;;;;16.99;68.77;99385.03;4880540;29;20307;-90
2021/08/19 03:46:58;;;;;;;4.67;3.10;;;;;;;17.05;68.51;99401.03;4881392;29;20239;-88
2021/08/19 03:49:25;;;;;;;4.87;3.50;;;;;;;17.08;68.53;99397.78;4850927;29;20231;-89
2021/08/19 03:51:52;;;;;;;6.27;3.50;;;;;;;17.07;68.78;99398.06;4881979;29;20239;-88
2021/08/19 03:54:19;;;;;;;4.37;3.03;;;;;;;17.03;69.03;99386.94;4866091;29;20244;-90
2021/08/19 03:56:46;;;;;;;4.27;3.53;;;;;;;17.12;68.71;99398.09;4881827;29;20628;-89
2021/08/19 03:59:14;;;;;;;3.73;3.40;;;;;;;17.06;68.62;99388.31;4866086;29;20231;-90
2021/08/19 04:01:41;;;;;;;4.60;3.63;;;;;;;17.06;68.42;99391.84;4866304;29;20291;-88
2021/08/19 04:04:08;;;;;;;3.50;3.20;;;;;;;17.12;68.20;99396.16;4880991;29;20239;-89
2021/08/19 04:06:35;;;;;;;4.20;3.10;;;;;;;17.08;67.89;99391.56;4881708;29;20231;-89
2021/08/19 04:09:02;;;;;;;6.57;3.10;;;;;;;17.21;67.61;99395.66;4865984;29;20319;-89
2021/08/19 04:11:29;;;;;;;5.20;4.07;;;;;;;17.18;67.42;99383.44;4866030;29;20698;-88
2021/08/19 04:13:55;;;;;;;4.67;3.20;;;;;;;17.21;67.05;99384.81;4881430;29;20589;-88
2021/08/19 04:16:22;;;;;;;4.87;3.60;;;;;;;17.23;66.93;99378.06;4880910;29;20300;-86
2021/08/19 04:18:49;;;;;;;4.80;3.00;;;;;;;17.31;66.87;99387.56;4881173;29;20235;-86
2021/08/19 04:21:16;;;;;;;4.53;3.50;;;;;;;17.32;66.83;99383.75;4881244;29;20543;-86
2021/08/19 04:23:44;;;;;;;4.17;3.47;;;;;;;17.35;66.64;99391.34;4881399;29;20643;-87
2021/08/19 04:26:11;;;;;;;4.00;3.20;;;;;;;17.43;66.72;99394.31;4880855;29;20235;-87
2021/08/19 04:28:39;;;;;;;4.50;3.60;;;;;;;17.49;66.71;99395.97;4881205;29;20232;-87
2021/08/19 04:31:06;;;;;;;4.70;3.40;;;;;;;17.39;66.69;99382.41;4881128;29;20283;-86
2021/08/19 04:33:33;;;;;;;5.07;3.63;;;;;;;17.53;66.21;99399.75;4880748;29;20703;-87
2021/08/19 04:36:00;;;;;;;4.90;3.70;;;;;;;17.63;66.36;99409.00;4865906;29;20259;-87
2021/08/19 04:38:27;;;;;;;4.57;3.50;;;;;;;17.63;66.24;99398.16;4880763;29;20539;-87
2021/08/19 04:40:54;;;;;;;4.73;4.00;;;;;;;17.66;66.11;99409.25;4881011;29;20234;-87
2021/08/19 04:43:21;;;;;;;5.07;3.70;;;;;;;17.68;65.93;99403.59;4880745;29;20235;-86
2021/08/19 04:45:48;;;;;;;4.03;3.63;;;;;;;17.70;66.05;99396.78;4880879;29;20239;-87
2021/08/19 04:48:15;;;;;;;4.03;3.60;;;;;;;17.77;65.52;99396.53;4865225;29;20319;-86
2021/08/19 04:50:42;;;;;;;5.87;3.80;;;;;;;17.86;65.13;99390.28;4880751;29;20235;-87
2021/08/19 04:53:09;;;;;;;4.00;3.43;;;;;;;17.84;64.86;99384.31;4865300;29;20234;-87
2021/08/19 04:55:35;;;;;;;4.40;3.80;;;;;;;17.91;64.70;99386.75;4865414;29;20231;-87
2021/08/19 04:58:02;;;;;;;5.07;3.70;;;;;;;18.00;64.54;99401.38;4880127;29;20255;-85
2021/08/19 05:00:29;;;;;;;5.43;3.97;;;;;;;18.03;64.20;99390.81;4849718;29;20259;-86
2021/08/19 05:02:56;;;;;;;5.27;3.90;;;;;;;18.18;63.76;99398.09;4880871;29;20315;-87
2021/08/19 05:05:24;;;;;;;6.43;4.17;;;;;;;18.18;63.46;99381.84;4880501;29;20652;-84
2021/08/19 05:07:50;;;;;;;5.07;3.67;;;;;;;18.34;62.94;99396.94;4880799;29;20251;-86
2021/08/19 05:10:17;;;;;;;5.20;3.77;;;;;;;18.41;62.54;99388.53;4880187;29;20241;-87
2021/08/19 05:12:44;;;;;;;113.17;56.50;;;;;;;18.57;62.26;99398.25;4880470;29;20255;-86
2021/08/19 05:15:11;;;;;;;55.03;34.47;;;;;;;18.62;61.90;99383.88;4880326;29;20739;-86
2021/08/19 05:17:38;;;;;;;12.87;11.57;;;;;;;18.72;61.46;99383.81;4880428;29;20301;-86
2021/08/19 05:20:06;;;;;;;10.67;8.97;;;;;;;18.91;61.22;99393.78;4880174;29;20236;-85
2021/08/19 05:22:33;;;;;;;13.20;11.33;;;;;;;18.99;60.63;99395.06;4880191;29;20251;-86
2021/08/19 05:24:59;;;;;;;9.40;8.50;;;;;;;19.09;60.30;99391.50;4880427;29;20322;-86
2021/08/19 05:27:26;;;;;;;6.93;5.10;;;;;;;19.20;60.14;99401.22;4880409;29;20581;-86
2021/08/19 05:29:53;;;;;;;7.13;4.30;;;;;;;19.27;60.10;99396.28;4879574;29;20255;-85
2021/08/19 05:32:20;;;;;;;6.17;3.80;;;;;;;19.51;59.66;99405.38;4879787;29;20333;-86
2021/08/19 05:34:46;;;;;;;5.53;4.00;;;;;;;19.67;59.14;99406.88;4880249;29;20235;-85
2021/08/19 05:37:13;;;;;;;5.53;4.13;;;;;;;19.79;59.29;99418.19;4895633;29;20648;-86
2021/08/19 05:39:40;;;;;;;5.10;3.80;;;;;;;19.90;59.03;99401.78;4864858;29;20251;-87
2021/08/19 05:42:06;;;;;;;7.10;4.03;;;;;;;19.93;58.96;99391.16;4879677;29;20235;-85
2021/08/19 05:44:33;;;;;;;4.90;4.03;;;;;;;20.18;59.02;99406.41;4879967;29;20233;-86
2021/08/19 05:47:00;;;;;;;6.77;3.60;;;;;;;20.29;58.81;99409.84;4879645;29;20289;-86
2021/08/19 05:49:27;;;;;;;6.87;4.30;;;;;;;20.31;58.40;99408.47;4864655;29;20240;-86
2021/08/19 05:51:54;;;;;;;7.77;4.10;;;;;;;20.42;57.86;99414.63;4879793;29;20252;-86
2021/08/19 05:54:21;;;;;;;6.50;3.97;;;;;;;20.49;57.21;99406.91;4879802;29;20317;-86
2021/08/19 05:56:47;;;;;;;5.30;4.13;;;;;;;20.55;56.94;99413.94;4879927;29;20327;-86
2021/08/19 05:59:14;;;;;;;5.60;3.60;;;;;;;20.61;56.70;99405.44;4879754;29;20604;-85
2021/08/19 06:01:41;;;;;;;7.47;4.33;;;;;;;20.77;56.73;99397.88;4879788;29;20350;-85
2021/08/19 06:04:08;;;;;;;6.23;4.00;;;;;;;20.86;56.42;99404.28;4863986;29;20650;-85
2021/08/19 06:06:35;;;;;;;8.13;4.20;;;;;;;20.98;56.04;99403.88;4879704;29;20681;-87
2021/08/19 06:09:01;;;;;;;7.40;3.67;;;;;;;21.13;55.75;99402.84;4864182;29;20286;-85
2021/08/19 06:11:28;;;;;;;7.27;3.90;;;;;;;21.31;55.30;99407.50;4879610;29;20262;-86
2021/08/19 06:13:55;;;;;;;6.77;3.93;;;;;;;21.34;55.28;99393.28;4864357;29;20326;-85
2021/08/19 06:16:22;;;;;;;7.17;3.90;;;;;;;21.47;54.60;99396.06;4880417;29;20238;-85
2021/08/19 06:18:49;;;;;;;5.83;4.10;;;;;;;21.53;54.53;99394.91;4879876;29;20323;-85
2021/08/19 06:21:15;;;;;;;7.60;4.23;;;;;;;21.68;54.70;99406.66;4879566;29;20241;-85
2021/08/19 06:23:43;;;;;;;5.10;3.83;;;;;;;21.88;54.28;99409.06;4879505;29;20290;-85
2021/08/19 06:26:09;;;;;;;5.63;4.00;;;;;;;22.08;53.66;99399.72;4879155;29;20326;-86
2021/08/19 06:28:36;;;;;;;5.20;4.00;;;;;;;22.17;53.48;99392.44;4864560;29;20233;-85
2021/08/19 06:31:03;;;;;;;7.03;4.07;;;;;;;22.51;52.50;99401.09;4864296;29;20541;-84
2021/08/19 06:33:30;;;;;;;7.37;3.73;;;;;;;22.84;51.87;99404.53;4879276;29;20713;-84
2021/08/19 06:35:56;;;;;;;7.47;4.13;;;;;;;23.14;50.67;99403.06;4879516;29;20318;-84
2021/08/19 06:38:23;;;;;;;5.60;3.77;;;;;;;23.37;50.20;99398.44;4863674;29;20341;-84
2021/08/19 06:40:50;;;;;;;5.07;3.63;;;;;;;23.66;50.15;99407.84;4864881;29;20232;-85
2021/08/19 06:43:17;;;;;;;4.53;3.57;;;;;;;23.92;48.66;99394.38;4867256;29;20330;-85
2021/08/19 06:45:44;;;;;;;8.30;3.70;;;;;;;24.23;48.10;99404.53;4883963;29;20243;-85
2021/08/19 06:48:10;;;;;;;4.63;3.57;;;;;;;24.41;47.26;99387.88;4882387;29;20261;-85
2021/08/19 06:50:37;;;;;;;5.57;3.83;;;;;;;24.64;46.60;99399.53;4867407;29;20296;-85
2021/08/19 06:53:04;;;;;;;5.03;3.63;;;;;;;24.81;46.25;99391.38;4867115;29;20328;-84
2021/08/19 06:55:32;;;;;;;5.50;3.22;;;;;;;25.09;45.52;99394.69;4882349;29;20279;-83
2021/08/19 06:57:59;;;;;;;4.40;3.17;;;;;;;25.33;45.27;99400.53;4882408;29;20240;-83
2021/08/19 07:00:26;;;;;;;6.07;3.60;;;;;;;25.44;44.43;99393.56;4866571;29;20255;-86
2021/08/19 07:02:53;;;;;;;6.03;3.25;;;;;;;25.57;43.84;99386.31;4882072;29;20284;-83
2021/08/19 07:05:21;;;;;;;6.45;3.25;;;;;;;25.70;43.51;99395.53;4867402;29;20261;-83
2021/08/19 07:07:47;;;;;;;5.28;3.30;;;;;;;25.70;42.99;99384.56;4866874;29;20660;-84
2021/08/19 07:10:14;;;;;;;4.55;3.35;;;;;;;25.92;43.46;99394.50;4882002;29;20583;-84
2021/08/19 07:12:41;;;;;;;4.47;3.42;;;;;;;25.95;43.56;99385.59;4882440;29;20288;-84
2021/08/19 07:15:08;;;;;;;6.78;3.30;;;;;;;25.86;43.55;99371.91;4882402;29;20648;-85
2021/08/19 07:17:35;;;;;;;5.45;3.50;;;;;;;26.04;42.82;99389.13;4866785;29;20235;-83
2021/08/19 07:20:03;;;;;;;5.93;3.70;;;;;;;26.19;43.09;99403.16;4866311;29;20288;-84
2021/08/19 07:22:30;;;;;;;5.93;3.50;;;;;;;26.17;43.31;99386.22;4876030;29;20268;-84
2021/08/19 07:24:56;;;;;;;4.75;3.72;;;;;;;26.36;43.16;99388.59;4881646;29;20580;-84
2021/08/19 07:27:23;;;;;;;5.03;3.28;;;;;;;26.79;42.20;99388.34;4881929;29;20273;-83
2021/08/19 07:29:50;;;;;;;4.88;3.55;;;;;;;26.88;41.57;99378.16;4881843;29;20257;-85
2021/08/19 07:32:19;;;;;;;5.78;3.33;;;;;;;27.05;41.40;99374.50;4896975;29;20228;-83
2021/08/19 07:34:47;;;;;;;5.93;3.65;;;;;;;27.28;39.69;99385.97;4866931;29;20299;-83
2021/08/19 07:37:14;;;;;;;6.15;3.40;;;;;;;27.32;39.69;99389.66;4866639;29;20279;-84
2021/08/19 07:39:41;;;;;;;3.55;3.20;;;;;;;27.42;39.04;99390.06;4866343;29;20242;-84
2021/08/19 07:42:08;;;;;;;5.10;2.67;;;;;;;27.57;39.09;99397.72;4866017;29;20686;-84
2021/08/19 07:44:35;;;;;;;6.20;3.30;;;;;;;27.77;38.34;99384.25;4866506;29;20621;-83
2021/08/19 07:47:02;;;;;;;5.28;3.30;;;;;;;27.77;37.61;99390.56;4866179;29;20231;-84
2021/08/19 07:49:29;;;;;;;3.20;2.88;;;;;;;27.71;37.42;99389.19;4866224;29;20271;-84
2021/08/19 07:51:56;;;;;;;3.55;3.10;;;;;;;27.71;37.57;99385.63;4865357;29;20609;-84
2021/08/19 07:54:23;;;;;;;4.60;3.70;;;;;;;27.87;36.98;99387.38;4865653;29;20297;-84
2021/08/19 07:56:49;;;;;;;3.30;3.00;;;;;;;27.98;36.09;99388.56;4881806;29;20247;-85
2021/08/19 07:59:16;;;;;;;3.33;2.97;;;;;;;28.19;36.35;99388.50;4865541;29;20236;-83
2021/08/19 08:01:43;;;;;;;3.72;3.15;;;;;;;28.38;35.92;99393.47;4881240;29;20652;-83
2021/08/19 08:04:11;;;;;;;4.82;2.92;;;;;;;28.48;36.27;99397.72;4894172;29;20231;-84
2021/08/19 08:06:39;;;;;;;3.38;3.08;;;;;;;28.70;36.27;99377.97;4878910;29;20250;-83
2021/08/19 08:09:06;;;;;;;3.33;3.03;;;;;;;28.77;35.89;99392.84;4896092;29;20264;-84
2021/08/19 08:11:34;;;;;;;3.55;3.20;;;;;;;29.05;35.23;99389.34;4881018;29;20230;-84
2021/08/19 08:14:02;;;;;;;3.50;3.20;;;;;;;29.39;34.67;99397.13;4880755;29;20243;-84
2021/08/19 08:16:29;;;;;;;4.00;3.42;;;;;;;29.56;33.68;99396.00;4866167;29;20531;-80
2021/08/19 08:18:55;;;;;;;3.38;3.10;;;;;;;29.61;33.58;99381.97;4881407;29;20243;-82
2021/08/19 08:21:23;;;;;;;4.70;3.20;;;;;;;29.47;34.10;99385.13;4865523;29;20255;-82
2021/08/19 08:23:53;;;;;;;3.97;3.17;;;;;;;29.68;33.65;99382.94;4881270;29;20521;-81
2021/08/19 08:26:20;;;;;;;5.65;3.13;;;;;;;29.80;33.68;99378.53;4880548;29;20644;-81
2021/08/19 08:28:50;;;;;;;3.55;2.92;;;;;;;30.12;32.93;99369.97;4865373;29;20551;-81
2021/08/19 08:31:17;;;;;;;3.28;2.97;;;;;;;30.50;32.55;99377.69;4865352;29;20231;-83
2021/08/19 08:33:45;;;;;;;5.18;3.22;;;;;;;30.59;32.64;99374.72;4865760;29;20239;-83
2021/08/19 08:36:12;;;;;;;3.20;2.90;;;;;;;30.56;32.71;99373.44;4880469;29;20240;-83
2021/08/19 08:38:39;;;;;;;3.30;3.00;;;;;;;30.88;31.83;99356.81;4880155;29;20234;-82
2021/08/19 08:41:07;;;;;;;3.33;3.03;;;;;;;30.92;32.21;99375.09;4880085;29;20251;-83
2021/08/19 08:43:34;;;;;;;3.47;2.90;;;;;;;31.16;31.57;99365.78;4879748;29;20644;-82
2021/08/19 08:46:01;;;;;;;3.42;3.13;;;;;;;31.07;31.52;99362.44;4865043;29;20708;-82
2021/08/19 08:48:29;;;;;;;3.45;3.15;;;;;;;31.13;31.91;99365.69;4880580;29;20323;-83
2021/08/19 08:50:56;;;;;;;3.33;2.95;;;;;;;31.19;32.61;99365.03;4865201;29;20287;-82
2021/08/19 08:53:24;;;;;;;3.25;2.88;;;;;;;31.17;32.38;99381.19;4878230;29;20236;-82
2021/08/19 08:55:52;;;;;;;5.53;2.80;;;;;;;31.03;32.21;99376.16;4863823;29;20591;-81
2021/08/19 08:58:20;;;;;;;3.20;3.00;;;;;;;30.93;32.05;99385.00;4879424;29;20255;-82
2021/08/19 09:00:47;;;;;;;3.80;3.08;;;;;;;31.00;32.03;99387.13;4879740;29;20263;-80
2021/08/19 09:03:17;;;;;;;5.57;3.00;;;;;;;31.14;32.29;99386.66;4879795;29;20286;-81
2021/08/19 09:05:49;;;;;;;3.65;3.00;;;;;;;31.30;30.73;99384.66;4880367;29;20239;-81
2021/08/19 09:08:18;;;;;;;4.50;3.10;;;;;;;31.48;31.64;99377.53;4880121;29;20287;-82
2021/08/19 09:10:46;;;;;;;3.60;3.30;;;;;;;31.52;31.03;99389.47;4880291;29;20251;-82
2021/08/19 09:13:15;;;;;;;3.28;2.97;;;;;;;31.74;29.88;99371.31;4880516;29;20286;-83
2021/08/19 09:15:44;;;;;;;4.63;3.25;;;;;;;31.95;29.73;99368.16;4880660;29;20232;-81
2021/08/19 09:18:12;;;;;;;4.22;3.10;;;;;;;32.16;29.58;99366.59;4880011;29;20227;-82
2021/08/19 09:20:41;;;;;;;3.05;2.75;;;;;;;31.89;29.35;99365.69;4879822;29;20267;-82
2021/08/19 09:23:15;;;;;;;4.07;3.00;;;;;;;31.66;29.61;99359.31;4877213;29;20318;-82
2021/08/19 09:25:44;;;;;;;4.07;3.05;;;;;;;31.69;29.93;99360.53;4876919;29;20301;-82
2021/08/19 09:28:16;;;;;;;3.00;2.70;;;;;;;31.25;31.03;99360.84;4863575;29;20644;-81
2021/08/19 09:30:47;;;;;;;3.05;2.75;;;;;;;30.77;31.21;99348.28;4880591;29;20580;-82
2021/08/19 09:33:20;;;;;;;6.78;2.97;;;;;;;30.55;31.58;99348.94;4879513;29;20300;-82
2021/08/19 09:35:48;;;;;;;3.10;2.75;;;;;;;30.49;32.61;99353.16;4880367;29;20235;-80
2021/08/19 09:38:19;;;;;;;4.20;2.90;;;;;;;30.24;33.14;99352.50;4879548;29;20358;-80
2021/08/19 09:41:01;;;;;;;2.70;2.50;;;;;;;29.93;32.53;99346.97;4879174;29;20604;-81
2021/08/19 09:43:41;;;;;;;3.38;2.58;;;;;;;30.00;31.80;99350.69;4895380;29;20287;-82
2021/08/19 09:46:09;;;;;;;3.53;2.80;;;;;;;29.97;32.05;99345.09;4880128;29;20330;-81
2021/08/19 09:48:36;;;;;;;3.00;2.80;;;;;;;30.21;31.65;99347.69;4864380;29;20247;-81
2021/08/19 09:51:13;;;;;;;3.67;2.45;;;;;;;30.54;31.12;99350.09;4879836;29;20227;-81
2021/08/19 09:53:45;;;;;;;2.55;2.25;;;;;;;30.95;30.22;99340.38;4879881;29;20239;-82
2021/08/19 09:56:12;;;;;;;3.65;2.22;;;;;;;31.23;29.34;99335.47;4879605;29;20264;-82
2021/08/19 09:58:40;;;;;;;3.33;2.20;;;;;;;31.38;29.53;99334.63;4864476;29;20266;-82
2021/08/19 10:01:07;;;;;;;3.45;2.80;;;;;;;31.11;30.79;99323.75;4864583;29;20251;-80
2021/08/19 10:03:35;;;;;;;3.40;2.25;;;;;;;30.66;29.32;99327.06;4864547;29;20255;-81
2021/08/19 10:06:02;;;;;;;3.28;2.53;;;;;;;30.58;31.16;99323.34;4879451;29;20653;-80
2021/08/19 10:08:29;;;;;;;2.53;2.33;;;;;;;30.22;30.87;99320.88;4864340;29;20266;-81
2021/08/19 10:10:57;;;;;;;2.95;2.53;;;;;;;30.05;32.82;99335.84;4864772;29;20258;-82
2021/08/19 10:13:24;;;;;;;2.90;2.03;;;;;;;29.80;32.11;99331.59;4879747;29;20230;-81
2021/08/19 10:15:52;;;;;;;3.15;2.33;;;;;;;29.82;31.15;99345.84;4882128;29;20291;-83
2021/08/19 10:18:31;;;;;;;2.05;1.90;;;;;;;30.11;29.57;99337.97;4882866;29;20314;-82
2021/08/19 10:21:11;;;;;;;2.40;2.20;;;;;;;30.27;29.46;99340.75;4868480;29;20251;-82
2021/08/19 10:23:58;;;;;;;2.35;2.15;;;;;;;30.44;29.04;99334.03;4883475;29;20242;-82
2021/08/19 10:26:25;;;;;;;3.33;2.20;;;;;;;29.89;30.72;99330.31;4883201;29;20231;-81
2021/08/19 10:28:54;;;;;;;3.60;2.17;;;;;;;29.56;31.12;99327.00;4883101;29;20596;-81
2021/08/19 10:31:36;;;;;;;3.33;2.50;;;;;;;29.71;30.82;99340.84;4867730;29;20319;-82
2021/08/19 10:34:03;;;;;;;2.65;2.22;;;;;;;29.05;30.46;99334.19;4882726;29;20310;-81
2021/08/19 10:36:30;;;;;;;5.88;2.53;;;;;;;29.14;30.77;99332.91;4883163;29;20274;-81
2021/08/19 10:39:18;;;;;;;2.92;2.40;;;;;;;29.31;31.75;99331.81;4898573;29;20231;-82
2021/08/19 10:41:50;;;;;;;2.90;2.33;;;;;;;29.05;32.70;99325.91;4884081;29;20632;-81
2021/08/19 10:44:30;;;;;;;2.90;2.38;;;;;;;28.62;34.29;99330.09;4868832;29;20259;-81
2021/08/19 10:46:57;;;;;;;2.63;2.38;;;;;;;28.61;33.95;99322.16;4883160;29;20652;-82
2021/08/19 10:49:34;;;;;;;3.33;2.80;;;;;;;28.01;35.94;99327.31;4882643;29;20606;-81
2021/08/19 10:52:07;;;;;;;3.53;2.70;;;;;;;28.20;35.07;99335.03;4882377;29;20266;-81
2021/08/19 10:54:39;;;;;;;3.53;2.30;;;;;;;27.77;34.70;99326.44;4883565;29;20317;-82
2021/08/19 10:57:21;;;;;;;2.60;2.40;;;;;;;27.78;34.46;99320.59;4883638;29;20338;-84
2021/08/19 11:00:07;;;;;;;2.88;2.63;;;;;;;28.10;35.70;99323.63;4883335;29;20656;-81
2021/08/19 11:02:45;;;;;;;20.27;3.38;;;;;;;28.35;36.26;99317.84;4882677;29;20517;-81
2021/08/19 11:05:21;;;;;;;2.92;2.60;;;;;;;28.15;36.04;99329.75;4882226;29;20329;-81
2021/08/19 11:07:50;;;;;;;3.38;2.40;;;;;;;28.37;36.11;99326.53;4882437;29;20236;-80
2021/08/19 11:10:45;;;;;;;3.25;2.38;;;;;;;28.68;35.15;99323.22;4882182;29;20242;-84
2021/08/19 11:13:13;;;;;;;3.38;2.53;;;;;;;29.16;34.40;99336.09;4865218;29;20232;-81
2021/08/19 11:15:48;;;;;;;5.60;2.80;;;;;;;29.40;32.76;99315.09;4851764;29;20540;-81
2021/08/19 11:18:26;;;;;;;2.70;2.50;;;;;;;29.12;34.20;99318.63;4882183;29;20254;-82
2021/08/19 11:20:52;;;;;;;3.55;2.90;;;;;;;28.69;35.93;99318.50;4882088;29;20326;-80
2021/08/19 11:23:27;;;;;;;2.92;2.63;;;;;;;28.63;36.09;99319.88;4882120;29;20585;-81
2021/08/19 11:26:00;;;;;;;3.83;2.85;;;;;;;28.29;36.30;99316.44;4881766;29;20239;-81
2021/08/19 11:28:34;;;;;;;3.75;2.63;;;;;;;28.00;35.08;99322.13;4881353;29;20321;-82
2021/08/19 11:31:09;;;;;;;3.40;2.65;;;;;;;28.53;35.87;99307.38;4882158;29;20322;-82
2021/08/19 11:33:35;;;;;;;3.00;2.55;;;;;;;29.28;34.47;99302.16;4882015;29;20272;-81
2021/08/19 11:36:02;;;;;;;2.95;2.45;;;;;;;29.87;34.21;99312.44;4881377;29;20639;-81
2021/08/19 11:38:29;;;;;;;3.60;2.60;;;;;;;30.09;31.13;99307.16;4882004;29;20327;-81
2021/08/19 11:40:57;;;;;;;3.00;2.70;;;;;;;30.50;30.56;99303.03;4881857;29;20315;-82